Pingryville, Massachusetts
Current Conditions -  °F | °C
As of 7:56 PM on Tuesday 25 Nov 2014 (Local Time) from KBED Reporting Station
Clear Clear  
Wind Chill: 40°   Ceiling: Unl
Heat Index: 40°   Visibility: 10mi
Dew Point: 29°   Wind: 3mph
Humidity: 65%   Direction: 230°SW
Pressure: 30.02"   Gusts: NA
Location:  42.5349°N, 71.4895°W
Report Text: KBED 260056Z 23003KT 10SM CLR 04/M02 A3002 RMK AO2 SLP179 T00441017
Loading
Personal Weather Stations






























Interactive Weather Map New forecast layout! Learn more

10-Day Weather Forecast

Advertisements
Track Severe Weather on mobile